createdAt,value
2018-09-20T00:00:52.842Z,89.01
2018-09-20T00:02:02.714Z,88.97
2018-09-20T00:03:12.559Z,89.26
2018-09-20T00:04:21.593Z,88.97
2018-09-20T00:05:31.755Z,89.07
2018-09-20T00:06:41.606Z,89.11
2018-09-20T00:07:51.450Z,88.78
2018-09-20T00:09:07.016Z,88.78
2018-09-20T00:10:16.858Z,88.87
2018-09-20T00:11:26.965Z,88.87
2018-09-20T00:12:36.807Z,88.68
2018-09-20T00:13:46.673Z,89.16
2018-09-20T00:14:56.246Z,88.68
2018-09-20T00:16:06.089Z,88.78
2018-09-20T00:17:15.968Z,89.07
2018-09-20T00:18:25.804Z,88.59
2018-09-20T00:19:35.924Z,88.87
2018-09-20T00:20:45.763Z,88.78
2018-09-20T00:21:55.605Z,88.49
2018-09-20T00:23:05.770Z,88.59
2018-09-20T00:24:15.877Z,88.3
2018-09-20T00:25:26.231Z,88.39
2018-09-20T00:26:35.265Z,88.39
2018-09-20T00:27:44.840Z,88.49
2018-09-20T00:28:55.028Z,88.49
2018-09-20T00:30:04.869Z,87.82
2018-09-20T00:31:14.976Z,87.43
2018-09-20T00:32:24.276Z,87.87
2018-09-20T00:33:33.573Z,87.43
2018-09-20T00:34:43.412Z,88.06
2018-09-20T00:35:53.526Z,87.43
2018-09-20T00:37:03.104Z,87.43
2018-09-20T00:38:12.963Z,87.43
2018-09-20T00:39:23.078Z,87.68
2018-09-20T00:40:33.199Z,87.62
2018-09-20T00:41:43.035Z,87.05
2018-09-20T00:42:52.904Z,86.81
2018-09-20T00:44:02.205Z,87.1
2018-09-20T00:45:12.047Z,87.39
2018-09-20T00:46:22.162Z,86.81
2018-09-20T00:47:32.504Z,87.1
2018-09-20T00:48:42.078Z,86.91
2018-09-20T00:49:51.955Z,86.91
2018-09-20T00:51:01.796Z,86.91
2018-09-20T00:52:11.363Z,86.72
2018-09-20T00:53:21.470Z,86.72
2018-09-20T00:54:31.315Z,86.91
2018-09-20T00:55:40.889Z,87.01
2018-09-20T00:56:50.734Z,86.72
2018-09-20T00:58:00.040Z,86.62
2018-09-20T00:59:09.610Z,87.01
2018-09-20T01:00:19.449Z,86.33
2018-09-20T01:01:29.596Z,86.43
2018-09-20T01:02:39.457Z,86.14
2018-09-20T01:03:49.303Z,86.14
2018-09-20T01:04:58.879Z,86.05
2018-09-20T01:06:08.992Z,86.24
2018-09-20T01:07:18.889Z,86.14
2018-09-20T01:08:28.743Z,85.75
2018-09-20T01:09:38.903Z,86.33
2018-09-20T01:10:48.772Z,85.57
2018-09-20T01:11:58.889Z,86.14
2018-09-20T01:13:08.740Z,85.47
2018-09-20T01:14:18.337Z,85.75
2018-09-20T01:15:28.448Z,85.57
2018-09-20T01:16:38.015Z,85.47
2018-09-20T01:17:47.864Z,85.57
2018-09-20T01:18:57.702Z,85.47
2018-09-20T01:20:07.810Z,85.28
2018-09-20T01:21:17.923Z,85.24
2018-09-20T01:22:27.767Z,85.47
2018-09-20T01:23:37.878Z,85.71
2018-09-20T01:24:47.767Z,85.52
2018-09-20T01:25:57.611Z,85.04
2018-09-20T01:27:07.450Z,84.95
2018-09-20T01:28:17.575Z,84.47
2018-09-20T01:29:27.419Z,84.66
2018-09-20T01:30:37.531Z,84.75
2018-09-20T01:31:47.099Z,84.85
2018-09-20T01:32:56.952Z,84.95
2018-09-20T01:34:06.518Z,84.56
2018-09-20T01:35:16.423Z,84.27
2018-09-20T01:36:26.455Z,84.18
2018-09-20T01:37:36.329Z,83.89
2018-09-20T01:38:46.149Z,83.8
2018-09-20T01:39:55.987Z,83.8
2018-09-20T01:41:05.827Z,83.89
2018-09-20T01:42:15.399Z,83.8
2018-09-20T01:43:25.509Z,83.8
2018-09-20T01:44:35.360Z,83.7
2018-09-20T01:45:45.469Z,83.8
2018-09-20T01:46:55.305Z,82.93
2018-09-20T01:48:05.145Z,83.7
2018-09-20T01:49:14.985Z,82.93
2018-09-20T01:50:24.710Z,83.03
2018-09-20T01:51:34.288Z,83.08
2018-09-20T01:52:44.442Z,83.27
2018-09-20T01:53:53.741Z,82.51
2018-09-20T01:55:03.340Z,82.41
2018-09-20T01:56:12.910Z,82.41
2018-09-20T01:57:22.748Z,82.51
2018-09-20T01:58:32.046Z,81.64
2018-09-20T01:59:42.212Z,81.45
2018-09-20T02:00:52.384Z,81.74
2018-09-20T02:02:01.955Z,81.84
2018-09-20T02:03:11.803Z,81.93
2018-09-20T02:04:21.111Z,81.16
2018-09-20T02:05:31.272Z,81.54
2018-09-20T02:06:40.844Z,81.26
2018-09-20T02:07:50.252Z,81.16
2018-09-20T02:09:00.361Z,81.26
2018-09-20T02:10:09.390Z,81.35
2018-09-20T02:11:19.499Z,80.68
2018-09-20T02:12:29.340Z,81.26
2018-09-20T02:13:39.505Z,80.55
2018-09-20T02:14:49.614Z,80.68
2018-09-20T02:15:59.184Z,80.58
2018-09-20T02:17:09.023Z,80.58
2018-09-20T02:18:19.139Z,80.4
2018-09-20T02:19:28.711Z,80.4
2018-09-20T02:20:38.592Z,80.2
2018-09-20T02:21:48.703Z,79.59
2018-09-20T02:22:58.863Z,79.78
2018-09-20T02:24:08.435Z,80.07
2018-09-20T02:25:18.010Z,79.21
2018-09-20T02:26:27.580Z,79.39
2018-09-20T02:27:37.427Z,79.3
2018-09-20T02:28:47.270Z,79.39
2018-09-20T02:29:57.388Z,79.49
2018-09-20T02:31:07.026Z,78.63
2018-09-20T02:32:17.141Z,79.21
2018-09-20T02:33:27.254Z,78.15
2018-09-20T02:34:37.116Z,78.63
2018-09-20T02:35:47.253Z,78.44
2018-09-20T02:36:57.368Z,78.72
2018-09-20T02:38:06.955Z,78.44
2018-09-20T02:39:16.260Z,78.25
2018-09-20T02:40:25.881Z,78.15
2018-09-20T02:41:35.462Z,78.15
2018-09-20T02:42:44.769Z,78.15
2018-09-20T02:43:54.081Z,78.05
2018-09-20T02:45:03.972Z,77.76
2018-09-20T02:46:14.095Z,78.34
2018-09-20T02:47:24.209Z,77.67
2018-09-20T02:48:33.509Z,77.76
2018-09-20T02:49:43.360Z,77.58
2018-09-20T02:50:52.671Z,77.38
2018-09-20T02:52:02.237Z,77
2018-09-20T02:53:12.097Z,77.38
2018-09-20T02:54:21.679Z,76.81
2018-09-20T02:55:31.522Z,76.71
2018-09-20T02:56:41.405Z,76.62
2018-09-20T02:57:50.983Z,76.9
2018-09-20T02:59:00.357Z,76.71
2018-09-20T03:00:10.971Z,76.81
2018-09-20T03:01:20.547Z,76.23
2018-09-20T03:02:30.330Z,76.62
2018-09-20T03:03:39.914Z,76.81
2018-09-20T03:04:49.774Z,76.52
2018-09-20T03:05:59.919Z,76.52
2018-09-20T03:07:09.494Z,76.52
2018-09-20T03:08:18.528Z,76.04
2018-09-20T03:09:28.673Z,75.95
2018-09-20T03:10:38.525Z,76.14
2018-09-20T03:11:48.696Z,76.04
2018-09-20T03:12:58.268Z,76.14
2018-09-20T03:14:08.417Z,76.14
2018-09-20T03:15:17.988Z,75.85
2018-09-20T03:16:27.293Z,75.95
2018-09-20T03:17:36.865Z,76.04
2018-09-20T03:18:46.975Z,75.75
2018-09-20T03:19:57.084Z,75.85
2018-09-20T03:21:06.928Z,76.04
2018-09-20T03:22:17.055Z,76.04
2018-09-20T03:23:27.175Z,75.46
2018-09-20T03:24:37.300Z,75.46
2018-09-20T03:25:46.877Z,75.18
2018-09-20T03:26:56.455Z,75.75
2018-09-20T03:28:06.304Z,75.56
2018-09-20T03:29:15.636Z,75.65
2018-09-20T03:30:25.666Z,75.46
2018-09-20T03:31:35.827Z,75.27
2018-09-20T03:32:45.712Z,75.65
2018-09-20T03:33:55.847Z,75.65
2018-09-20T03:35:05.992Z,75.95
2018-09-20T03:36:16.141Z,75.65
2018-09-20T03:37:25.453Z,75.56
2018-09-20T03:38:35.582Z,75.56
2018-09-20T03:39:45.735Z,75.56
2018-09-20T03:40:55.593Z,75.08
2018-09-20T03:42:05.715Z,75.65
2018-09-20T03:43:15.551Z,74.89
2018-09-20T03:44:25.392Z,75.27
2018-09-20T03:45:35.465Z,74.98
2018-09-20T03:46:45.353Z,74.89
2018-09-20T03:47:55.198Z,75.08
2018-09-20T03:49:05.084Z,75.18
2018-09-20T03:50:14.666Z,75.18
2018-09-20T03:51:24.787Z,75.27
2018-09-20T03:52:34.408Z,75.27
2018-09-20T03:53:44.276Z,74.69
2018-09-20T03:54:53.847Z,74.69
2018-09-20T03:56:03.692Z,74.89
2018-09-20T03:57:13.531Z,74.79
2018-09-20T03:58:23.654Z,74.69
2018-09-20T03:59:33.492Z,75.37
2018-09-20T04:00:43.667Z,74.6
2018-09-20T04:01:53.504Z,74.6
2018-09-20T04:03:03.102Z,74.6
2018-09-20T04:04:12.991Z,75.37
2018-09-20T04:05:22.570Z,74.6
2018-09-20T04:06:32.413Z,74.69
2018-09-20T04:07:42.570Z,74.41
2018-09-20T04:08:52.742Z,74.6
2018-09-20T04:10:02.662Z,74.69
2018-09-20T04:11:12.246Z,74.6
2018-09-20T04:12:21.839Z,74.6
2018-09-20T04:13:31.717Z,74.51
2018-09-20T04:14:41.559Z,74.79
2018-09-20T04:15:50.863Z,74.79
2018-09-20T04:17:00.904Z,74.69
2018-09-20T04:18:11.045Z,74.69
2018-09-20T04:19:20.896Z,74.22
2018-09-20T04:20:30.744Z,74.12
2018-09-20T04:21:40.594Z,74.02
2018-09-20T04:22:50.447Z,74.69
2018-09-20T04:24:00.296Z,74.89
2018-09-20T04:25:10.422Z,74.31
2018-09-20T04:26:20.260Z,74.22
2018-09-20T04:27:29.618Z,74.41
2018-09-20T04:28:39.466Z,73.93
2018-09-20T04:29:49.651Z,74.31
2018-09-20T04:30:59.228Z,73.74
2018-09-20T04:32:08.562Z,74.51
2018-09-20T04:33:18.137Z,74.02
2018-09-20T04:34:27.988Z,74.12
2018-09-20T04:35:37.567Z,74.12
2018-09-20T04:36:47.439Z,74.12
2018-09-20T04:37:57.286Z,74.22
2018-09-20T04:39:06.863Z,74.02
2018-09-20T04:40:16.429Z,74.12
2018-09-20T04:41:26.307Z,74.12
2018-09-20T04:42:36.517Z,74.22
2018-09-20T04:43:46.370Z,74.22
2018-09-20T04:44:55.942Z,73.65
2018-09-20T04:46:05.801Z,74.22
2018-09-20T04:47:15.915Z,74.12
2018-09-20T04:48:25.483Z,73.74
2018-09-20T04:49:34.513Z,73.55
2018-09-20T04:50:43.819Z,73.26
2018-09-20T04:51:53.990Z,73.45
2018-09-20T04:53:04.294Z,73.45
2018-09-20T04:54:14.525Z,73.26
2018-09-20T04:55:24.437Z,73.45
2018-09-20T04:56:34.564Z,73.74
2018-09-20T04:57:43.869Z,73.83
2018-09-20T04:58:53.441Z,73.16
2018-09-20T05:00:02.871Z,73.16
2018-09-20T05:01:13.232Z,73.45
2018-09-20T05:02:23.342Z,73.45
2018-09-20T05:03:33.196Z,73.26
2018-09-20T05:04:43.035Z,73.07
2018-09-20T05:05:52.883Z,73.55
2018-09-20T05:07:02.994Z,73.07
2018-09-20T05:08:13.105Z,72.97
2018-09-20T05:09:22.472Z,72.97
2018-09-20T05:10:32.530Z,72.97
2018-09-20T05:11:42.372Z,73.26
2018-09-20T05:12:52.490Z,72.39
2018-09-20T05:14:02.063Z,73.26
2018-09-20T05:15:12.110Z,72.49
2018-09-20T05:16:21.648Z,72.49
2018-09-20T05:17:31.487Z,72.39
2018-09-20T05:18:41.329Z,72.59
2018-09-20T05:19:51.170Z,72.68
2018-09-20T05:21:01.309Z,72.68
2018-09-20T05:22:10.906Z,72.78
2018-09-20T05:23:20.745Z,72.39
2018-09-20T05:24:30.660Z,72.49
2018-09-20T05:25:40.289Z,72.3
2018-09-20T05:26:49.870Z,72.39
2018-09-20T05:27:59.176Z,72.2
2018-09-20T05:29:09.386Z,72.39
2018-09-20T05:30:19.492Z,72.39
2018-09-20T05:31:29.336Z,72.49
2018-09-20T05:32:38.642Z,71.72
2018-09-20T05:33:48.484Z,72.2
2018-09-20T05:34:58.337Z,72.2
2018-09-20T05:36:08.187Z,71.82
2018-09-20T05:37:17.761Z,71.92
2018-09-20T05:38:27.607Z,72.2
2018-09-20T05:39:37.456Z,71.72
2018-09-20T05:40:47.595Z,72.2
2018-09-20T05:41:56.895Z,71.34
2018-09-20T05:43:06.832Z,71.53
2018-09-20T05:44:16.904Z,71.53
2018-09-20T05:45:26.749Z,71.53
2018-09-20T05:46:36.895Z,71.63
2018-09-20T05:47:47.036Z,71.72
2018-09-20T05:48:56.905Z,71.72
2018-09-20T05:50:06.747Z,71.63
2018-09-20T05:51:16.056Z,71.44
2018-09-20T05:52:25.630Z,71.72
2018-09-20T05:53:35.204Z,71.63
2018-09-20T05:54:45.325Z,71.25
2018-09-20T05:55:55.164Z,71.25
2018-09-20T05:57:05.280Z,71.34
2018-09-20T05:58:15.388Z,71.63
2018-09-20T05:59:25.279Z,71.44
2018-09-20T06:00:34.261Z,70.86
2018-09-20T06:01:44.063Z,70.96
2018-09-20T06:02:53.903Z,71.15
2018-09-20T06:04:03.487Z,71.05
2018-09-20T06:05:13.329Z,70.86
2018-09-20T06:06:23.188Z,71.57
2018-09-20T06:07:33.031Z,71.09
2018-09-20T06:08:42.873Z,71.09
2018-09-20T06:09:52.471Z,70.9
2018-09-20T06:11:02.035Z,71.05
2018-09-20T06:12:11.608Z,70.99
2018-09-20T06:13:21.340Z,71.09
2018-09-20T06:14:30.973Z,71.09
2018-09-20T06:15:40.809Z,71.19
2018-09-20T06:16:50.949Z,70.8
2018-09-20T06:18:01.065Z,71.19
2018-09-20T06:19:10.362Z,70.99
2018-09-20T06:20:20.707Z,70.9
2018-09-20T06:21:30.010Z,71.57
2018-09-20T06:22:39.953Z,71.57
2018-09-20T06:23:49.305Z,71.28
2018-09-20T06:24:59.149Z,71.28
2018-09-20T06:26:09.269Z,71.76
2018-09-20T06:27:18.569Z,71.66
2018-09-20T06:28:28.443Z,71.37
2018-09-20T06:29:38.291Z,71.37
2018-09-20T06:30:48.167Z,71.37
2018-09-20T06:31:58.280Z,71.28
2018-09-20T06:33:08.150Z,71.7
2018-09-20T06:34:18.270Z,71.7
2018-09-20T06:35:28.348Z,71.57
2018-09-20T06:36:37.914Z,71.61
2018-09-20T06:37:47.262Z,71.51
2018-09-20T06:38:57.136Z,71.89
2018-09-20T06:40:06.990Z,71.61
2018-09-20T06:41:16.848Z,71.47
2018-09-20T06:42:26.723Z,71.89
2018-09-20T06:43:36.596Z,71.51
2018-09-20T06:44:46.454Z,71.51
2018-09-20T06:45:56.571Z,71.51
2018-09-20T06:47:06.693Z,71.8
2018-09-20T06:48:16.266Z,71.7
2018-09-20T06:49:26.432Z,71.61
2018-09-20T06:50:36.665Z,71.8
2018-09-20T06:51:46.240Z,71.61
2018-09-20T06:52:56.083Z,71.51
2018-09-20T06:54:06.194Z,71.61
2018-09-20T06:55:15.494Z,71.61
2018-09-20T06:56:25.347Z,71.89
2018-09-20T06:57:35.330Z,71.51
2018-09-20T06:58:45.449Z,71.51
2018-09-20T06:59:55.582Z,71.7
2018-09-20T07:01:05.189Z,71.8
2018-09-20T07:02:15.031Z,71.7
2018-09-20T07:03:25.273Z,71.7
2018-09-20T07:04:35.492Z,71.61
2018-09-20T07:05:45.619Z,71.89
2018-09-20T07:06:55.742Z,71.8
2018-09-20T07:08:04.772Z,71.64
2018-09-20T07:09:14.351Z,71.73
2018-09-20T07:10:23.925Z,71.83
2018-09-20T07:11:33.800Z,72.6
2018-09-20T07:12:43.915Z,72.69
2018-09-20T07:13:53.649Z,72.41
2018-09-20T07:15:03.233Z,72.6
2018-09-20T07:16:13.370Z,72.83
2018-09-20T07:17:22.946Z,72.64
2018-09-20T07:18:32.253Z,72.92
2018-09-20T07:19:42.104Z,72.83
2018-09-20T07:20:52.211Z,73.41
2018-09-20T07:22:02.324Z,73.11
2018-09-20T07:23:12.442Z,73.69
2018-09-20T07:24:22.011Z,73.6
2018-09-20T07:25:31.331Z,73.79
2018-09-20T07:26:41.355Z,73.98
2018-09-20T07:27:51.207Z,73.69
2018-09-20T07:29:01.319Z,73.79
2018-09-20T07:30:11.163Z,74.65
2018-09-20T07:31:21.041Z,74.5
2018-09-20T07:32:30.616Z,74.55
2018-09-20T07:33:40.841Z,74.5
2018-09-20T07:34:50.707Z,74.3
2018-09-20T07:36:00.549Z,74.79
2018-09-20T07:37:10.424Z,74.79
2018-09-20T07:38:20.536Z,75.17
2018-09-20T07:39:30.143Z,75.27
2018-09-20T07:40:40.260Z,75.27
2018-09-20T07:41:50.106Z,75.07
2018-09-20T07:42:59.683Z,74.98
2018-09-20T07:44:09.261Z,75.56
2018-09-20T07:45:19.153Z,75.56
2018-09-20T07:46:29.005Z,75.46
2018-09-20T07:47:38.571Z,75.56
2018-09-20T07:48:48.655Z,75.17
2018-09-20T07:49:58.766Z,75.49
2018-09-20T07:51:08.613Z,75.69
2018-09-20T07:52:17.915Z,75.49
2018-09-20T07:53:27.476Z,75.88
2018-09-20T07:54:37.723Z,75.69
2018-09-20T07:55:47.568Z,76.07
2018-09-20T07:56:57.690Z,75.79
2018-09-20T07:58:07.839Z,76.26
2018-09-20T07:59:17.409Z,76.26
2018-09-20T08:00:26.989Z,76.21
2018-09-20T08:01:37.065Z,76.21
2018-09-20T08:02:47.858Z,76.59
2018-09-20T08:03:57.440Z,76.5
2018-09-20T08:05:06.746Z,76.4
2018-09-20T08:06:16.050Z,76.11
2018-09-20T08:07:26.163Z,76.78
2018-09-20T08:08:36.007Z,76.69
2018-09-20T08:09:45.313Z,76.78
2018-09-20T08:10:55.159Z,77.08
2018-09-20T08:12:04.733Z,76.31
2018-09-20T08:13:14.038Z,76.59
2018-09-20T08:14:23.946Z,76.69
2018-09-20T08:15:34.073Z,76.88
2018-09-20T08:16:43.644Z,76.88
2018-09-20T08:17:53.487Z,77.08
2018-09-20T08:19:03.325Z,76.44
2018-09-20T08:20:13.442Z,77.31
2018-09-20T08:21:23.637Z,76.92
2018-09-20T08:22:33.609Z,77.01
2018-09-20T08:23:43.185Z,77.4
2018-09-20T08:24:53.305Z,77.4
2018-09-20T08:26:02.608Z,77.21
2018-09-20T08:27:12.184Z,77.73
2018-09-20T08:28:22.026Z,77.83
2018-09-20T08:29:32.143Z,78.11
2018-09-20T08:30:42.006Z,77.92
2018-09-20T08:31:51.591Z,77.92
2018-09-20T08:33:01.700Z,78.02
2018-09-20T08:34:11.550Z,78.02
2018-09-20T08:35:21.704Z,78.02
2018-09-20T08:36:31.364Z,77.92
2018-09-20T08:37:41.237Z,78.02
2018-09-20T08:38:51.983Z,78.5
2018-09-20T08:40:02.101Z,78.21
2018-09-20T08:41:11.987Z,78.5
2018-09-20T08:42:21.997Z,78.4
2018-09-20T08:43:32.411Z,78.5
2018-09-20T08:44:41.980Z,78.98
2018-09-20T08:45:51.824Z,78.4
2018-09-20T08:47:01.411Z,78.98
2018-09-20T08:48:11.260Z,79.08
2018-09-20T08:49:20.846Z,78.83
2018-09-20T08:50:30.687Z,78.83
2018-09-20T08:51:40.806Z,79.02
2018-09-20T08:52:50.661Z,79.11
2018-09-20T08:54:00.508Z,78.63
2018-09-20T08:55:10.365Z,79.11
2018-09-20T08:56:19.949Z,79.02
2018-09-20T08:57:29.803Z,79.41
2018-09-20T08:58:39.672Z,79.31
2018-09-20T08:59:49.530Z,79.21
2018-09-20T09:00:59.699Z,79.69
2018-09-20T09:02:09.283Z,79.6
2018-09-20T09:03:18.591Z,79.41
2018-09-20T09:04:28.290Z,79.6
2018-09-20T09:05:38.703Z,80.37
2018-09-20T09:06:48.823Z,79.89
2018-09-20T09:07:58.403Z,80.08
2018-09-20T09:09:08.251Z,80.22
2018-09-20T09:10:18.367Z,80.02
2018-09-20T09:11:28.213Z,80.12
2018-09-20T09:12:38.041Z,80.02
2018-09-20T09:13:47.893Z,80.22
2018-09-20T09:14:57.791Z,80.22
2018-09-20T09:16:07.640Z,80.41
2018-09-20T09:17:17.225Z,80.12
2018-09-20T09:18:27.338Z,80.31
2018-09-20T09:19:36.411Z,80.41
2018-09-20T09:20:46.357Z,80.02
2018-09-20T09:21:55.932Z,80.22
2018-09-20T09:23:06.043Z,80.79
2018-09-20T09:24:15.899Z,80.79
2018-09-20T09:25:25.747Z,80.79
2018-09-20T09:26:35.869Z,80.99
2018-09-20T09:27:45.445Z,80.99
2018-09-20T09:28:55.568Z,81.37
2018-09-20T09:30:05.157Z,80.89
2018-09-20T09:31:15.230Z,81.47
2018-09-20T09:32:24.838Z,81.27
2018-09-20T09:33:34.683Z,81.57
2018-09-20T09:34:44.542Z,81.66
2018-09-20T09:35:53.574Z,81.27
2018-09-20T09:37:03.692Z,81.57
2018-09-20T09:38:13.000Z,81.47
2018-09-20T09:39:22.872Z,80.99
2018-09-20T09:40:32.172Z,81.27
2018-09-20T09:41:42.244Z,81.09
2018-09-20T09:42:51.833Z,81.6
2018-09-20T09:44:01.699Z,81.32
2018-09-20T09:45:11.541Z,81.32
2018-09-20T09:46:21.659Z,81.27
2018-09-20T09:47:31.234Z,81.22
2018-09-20T09:48:40.536Z,81.7
2018-09-20T09:49:50.110Z,81.9
2018-09-20T09:50:59.961Z,81.9
2018-09-20T09:52:09.532Z,82.09
2018-09-20T09:53:19.580Z,82.09
2018-09-20T09:54:29.573Z,82.28
2018-09-20T09:55:38.993Z,82.38
2018-09-20T09:56:48.566Z,82.67
2018-09-20T09:57:58.142Z,82.57
2018-09-20T09:59:07.980Z,82.86
2018-09-20T10:00:17.551Z,82.86
2018-09-20T10:01:27.129Z,83.05
2018-09-20T10:02:36.769Z,82.96
2018-09-20T10:03:46.474Z,83.44
2018-09-20T10:04:56.049Z,82.96
2018-09-20T10:06:05.354Z,82.86
2018-09-20T10:07:14.985Z,82.9
2018-09-20T10:08:24.724Z,83.19
2018-09-20T10:09:34.299Z,83.29
2018-09-20T10:10:44.178Z,83.67
2018-09-20T10:11:54.299Z,83.87
2018-09-20T10:13:04.153Z,83.87
2018-09-20T10:14:14.312Z,83.77
2018-09-20T10:15:24.493Z,83.96
2018-09-20T10:16:34.620Z,83.77
2018-09-20T10:17:43.956Z,84.2
2018-09-20T10:18:53.807Z,83.91
2018-09-20T10:20:03.748Z,84.3
2018-09-20T10:21:14.094Z,83.91
2018-09-20T10:22:24.282Z,84.39
2018-09-20T10:23:34.136Z,84.48
2018-09-20T10:24:43.985Z,84.58
2018-09-20T10:25:54.136Z,84.39
2018-09-20T10:27:04.256Z,84.3
2018-09-20T10:28:14.210Z,84.2
2018-09-20T10:29:23.932Z,84.39
2018-09-20T10:30:33.793Z,84.2
2018-09-20T10:31:43.913Z,84.48
2018-09-20T10:32:53.219Z,84.39
2018-09-20T10:34:03.011Z,84.1
2018-09-20T10:35:13.578Z,84.58
2018-09-20T10:36:23.161Z,84.1
2018-09-20T10:37:33.007Z,84.58
2018-09-20T10:38:43.128Z,84.58
2018-09-20T10:39:53.027Z,85.06
2018-09-20T10:41:02.935Z,84.88
2018-09-20T10:42:13.051Z,84.39
2018-09-20T10:43:22.657Z,84.72
2018-09-20T10:44:32.232Z,85.55
2018-09-20T10:45:42.126Z,85.16
2018-09-20T10:46:52.235Z,84.33
2018-09-20T10:48:01.808Z,84.43
2018-09-20T10:49:11.390Z,84.91
2018-09-20T10:50:20.999Z,85.59
2018-09-20T10:51:30.890Z,85.21
2018-09-20T10:52:40.736Z,85.21
2018-09-20T10:53:50.582Z,85.3
2018-09-20T10:55:00.422Z,84.14
2018-09-20T10:56:09.459Z,84.43
2018-09-20T10:57:19.588Z,84.63
2018-09-20T10:58:29.462Z,84.33
2018-09-20T10:59:39.327Z,84.05
2018-09-20T11:00:48.912Z,84.43
2018-09-20T11:01:59.031Z,84.38
2018-09-20T11:03:09.153Z,84.28
2018-09-20T11:04:19.212Z,84.38
2018-09-20T11:05:28.795Z,84.28
2018-09-20T11:06:39.146Z,83.99
2018-09-20T11:07:48.997Z,84.57
2018-09-20T11:08:58.847Z,85.15
2018-09-20T11:10:08.991Z,84.28
2018-09-20T11:11:18.849Z,83.89
2018-09-20T11:12:28.428Z,83.89
2018-09-20T11:13:38.274Z,83.99
2018-09-20T11:14:47.912Z,84.52
2018-09-20T11:15:57.752Z,84.22
2018-09-20T11:17:07.593Z,84.8
2018-09-20T11:18:17.183Z,84.22
2018-09-20T11:19:26.490Z,83.55
2018-09-20T11:20:36.365Z,83.06
2018-09-20T11:21:45.940Z,83.16
2018-09-20T11:22:56.052Z,83.45
2018-09-20T11:24:05.090Z,83.74
2018-09-20T11:25:15.211Z,84.03
2018-09-20T11:26:24.836Z,84.22
2018-09-20T11:27:34.681Z,83.84
2018-09-20T11:28:44.559Z,83.45
2018-09-20T11:29:54.672Z,83.74
2018-09-20T11:31:04.520Z,83.45
2018-09-20T11:32:14.681Z,83.06
2018-09-20T11:33:24.818Z,82.78
2018-09-20T11:34:34.667Z,83.06
2018-09-20T11:35:44.816Z,83.16
2018-09-20T11:36:54.953Z,82.48
2018-09-20T11:38:04.545Z,82.1
2018-09-20T11:39:13.576Z,81.71
2018-09-20T11:40:23.154Z,82.78
2018-09-20T11:41:33.272Z,82.39
2018-09-20T11:42:42.803Z,81.81
2018-09-20T11:43:52.843Z,82.48
2018-09-20T11:45:03.076Z,81.9
2018-09-20T11:46:12.595Z,82.29
2018-09-20T11:47:22.946Z,82.48
2018-09-20T11:48:32.835Z,81.95
2018-09-20T11:49:43.081Z,82.62
2018-09-20T11:50:52.658Z,82.1
2018-09-20T11:52:02.912Z,82.58
2018-09-20T11:53:12.765Z,82.48
2018-09-20T11:54:22.984Z,82.68
2018-09-20T11:55:32.557Z,82.1
2018-09-20T11:56:42.718Z,81.65
2018-09-20T11:57:52.325Z,81.71
2018-09-20T11:59:01.906Z,81.75
2018-09-20T12:00:12.005Z,81.9
2018-09-20T12:01:21.855Z,81.71
2018-09-20T12:02:32.278Z,81.62
2018-09-20T12:03:42.401Z,81.37
2018-09-20T12:04:52.272Z,80.49
2018-09-20T12:06:02.388Z,80.4
2018-09-20T12:07:11.688Z,80.11
2018-09-20T12:08:21.808Z,80.11
2018-09-20T12:09:31.954Z,80.34
2018-09-20T12:10:41.542Z,79.85
2018-09-20T12:11:51.441Z,79.85
2018-09-20T12:13:01.015Z,78.89
2018-09-20T12:14:10.324Z,79.76
2018-09-20T12:15:19.899Z,79.04
2018-09-20T12:16:30.018Z,79.43
2018-09-20T12:17:39.898Z,79.85
2018-09-20T12:18:50.047Z,79.57
2018-09-20T12:20:00.051Z,79.37
2018-09-20T12:21:10.170Z,79.76
2018-09-20T12:22:19.479Z,79.47
2018-09-20T12:23:29.319Z,79.76
2018-09-20T12:24:39.446Z,79.37
2018-09-20T12:25:48.784Z,79.47
2018-09-20T12:26:59.135Z,78.89
2018-09-20T12:28:08.943Z,79.27
2018-09-20T12:29:19.199Z,78.99
2018-09-20T12:30:28.858Z,79.08
2018-09-20T12:31:38.573Z,79.37
2018-09-20T12:32:48.994Z,79.47
2018-09-20T12:33:59.087Z,78.89
2018-09-20T12:35:08.666Z,78.59
2018-09-20T12:36:18.849Z,78.89
2018-09-20T12:37:28.776Z,78.89
2018-09-20T12:38:39.029Z,78.89
2018-09-20T12:39:49.107Z,79.17
2018-09-20T12:40:59.100Z,79.47
2018-09-20T12:42:09.570Z,78.69
2018-09-20T12:43:19.649Z,78.89
2018-09-20T12:44:29.424Z,78.89
2018-09-20T12:45:39.130Z,78.69
2018-09-20T12:46:49.454Z,78.89
2018-09-20T12:47:59.213Z,78.89
2018-09-20T12:49:09.542Z,78.79
2018-09-20T12:50:19.468Z,78.69
2018-09-20T12:51:29.649Z,78.54
2018-09-20T12:52:39.597Z,78.44
2018-09-20T12:53:49.853Z,77.57
2018-09-20T12:54:59.535Z,77.57
2018-09-20T12:56:09.274Z,77.96
2018-09-20T12:57:19.056Z,78.05
2018-09-20T12:58:28.763Z,78.15
2018-09-20T12:59:38.409Z,77.47
2018-09-20T13:00:48.035Z,78.05
2018-09-20T13:01:58.193Z,77.96
2018-09-20T13:03:08.409Z,77.96
2018-09-20T13:04:18.187Z,77.57
2018-09-20T13:05:28.244Z,78.48
2018-09-20T13:06:37.330Z,78.54
2018-09-20T13:07:47.300Z,78.74
2018-09-20T13:08:57.199Z,78.92
2018-09-20T13:10:07.073Z,78.34
2018-09-20T13:11:17.281Z,77.61
2018-09-20T13:12:27.069Z,77.61
2018-09-20T13:13:37.272Z,77.03
2018-09-20T13:14:47.230Z,77.28
2018-09-20T13:15:57.175Z,76.51
2018-09-20T13:17:06.519Z,76.99
2018-09-20T13:18:16.697Z,76.79
2018-09-20T13:19:26.131Z,76.45
2018-09-20T13:20:36.009Z,76.93
2018-09-20T13:21:46.059Z,76.93
2018-09-20T13:22:55.753Z,75.87
2018-09-20T13:24:05.425Z,75.96
2018-09-20T13:25:15.165Z,75.77
2018-09-20T13:26:25.672Z,75.48
2018-09-20T13:27:35.906Z,75.71
2018-09-20T13:28:46.193Z,75.28
2018-09-20T13:29:55.933Z,75.96
2018-09-20T13:31:05.674Z,75.42
2018-09-20T13:32:15.708Z,75.19
2018-09-20T13:33:25.428Z,75.23
2018-09-20T13:34:35.599Z,74.9
2018-09-20T13:35:45.802Z,74.9
2018-09-20T13:36:55.977Z,74.7
2018-09-20T13:38:06.018Z,74.9
2018-09-20T13:39:15.488Z,75.38
2018-09-20T13:40:25.712Z,75.87
2018-09-20T13:41:35.427Z,75.38
2018-09-20T13:42:45.634Z,75.48
2018-09-20T13:43:55.257Z,75.19
2018-09-20T13:45:04.896Z,74.6
2018-09-20T13:46:15.181Z,74.26
2018-09-20T13:47:24.562Z,74.54
2018-09-20T13:48:34.893Z,74.35
2018-09-20T13:49:45.209Z,73.86
2018-09-20T13:50:55.337Z,73.86
2018-09-20T13:52:04.701Z,74.26
2018-09-20T13:53:14.612Z,74.35
2018-09-20T13:54:24.789Z,74.35
2018-09-20T13:55:34.795Z,74.16
2018-09-20T13:56:44.521Z,74.26
2018-09-20T13:57:54.281Z,72.99
2018-09-20T13:59:03.975Z,72.45
2018-09-20T14:00:14.200Z,72.64
2018-09-20T14:01:23.865Z,72.35
2018-09-20T14:02:33.556Z,72.67
2018-09-20T14:03:43.997Z,72.58
2018-09-20T14:04:54.070Z,71.61
2018-09-20T14:06:04.589Z,71.8
2018-09-20T14:07:14.602Z,71.8
2018-09-20T14:08:24.553Z,71.32
2018-09-20T14:09:34.193Z,71.45
2018-09-20T14:10:44.103Z,70.57
2018-09-20T14:11:54.648Z,70.77
2018-09-20T14:13:04.592Z,70.87
2018-09-20T14:14:14.557Z,70.64
2018-09-20T14:15:24.294Z,71.12
2018-09-20T14:16:34.415Z,71.22
2018-09-20T14:17:44.632Z,71.7
2018-09-20T14:18:54.308Z,71.12
2018-09-20T14:20:04.213Z,71.06
2018-09-20T14:21:13.877Z,71.61
2018-09-20T14:22:23.243Z,69.38
2018-09-20T14:23:33.506Z,70.15
2018-09-20T14:24:43.577Z,71.12
2018-09-20T14:25:53.488Z,70.54
2018-09-20T14:27:03.839Z,70.51
2018-09-20T14:28:13.877Z,70.8
2018-09-20T14:29:23.895Z,70.93
2018-09-20T14:30:34.299Z,70.06
2018-09-20T14:31:44.304Z,70.06
2018-09-20T14:32:54.235Z,70.06
2018-09-20T14:34:03.855Z,70.73
2018-09-20T14:35:13.845Z,70.45
2018-09-20T14:36:22.969Z,71.03
2018-09-20T14:37:33.251Z,70.73
2018-09-20T14:38:43.215Z,70.7
2018-09-20T14:39:53.524Z,71.19
2018-09-20T14:41:03.740Z,71.58
2018-09-20T14:42:13.928Z,71.19
2018-09-20T14:43:23.854Z,71.28
2018-09-20T14:44:33.556Z,71.73
2018-09-20T14:45:43.525Z,71.25
2018-09-20T14:46:53.765Z,72.02
2018-09-20T14:48:03.763Z,72.22
2018-09-20T14:49:13.680Z,71.44
2018-09-20T14:50:23.322Z,71.83
2018-09-20T14:51:32.996Z,72.12
2018-09-20T14:52:43.129Z,71.06
2018-09-20T14:53:53.384Z,70.76
2018-09-20T14:55:03.374Z,70.67
2018-09-20T14:56:13.654Z,70.67
2018-09-20T14:57:23.431Z,70.76
2018-09-20T14:58:33.720Z,71.15
2018-09-20T14:59:43.449Z,70.67
2018-09-20T15:00:53.135Z,71.06
2018-09-20T15:02:03.533Z,70.76
2018-09-20T15:03:13.699Z,71.06